sensor_id;sensor_type;location;lat;lon;timestamp;temperature;humidity
8882;DHT22;4477;48.736;9.176;2023-06-19T00:00:06;20.80;63.10
8882;DHT22;4477;48.736;9.176;2023-06-19T00:02:39;20.80;63.40
8882;DHT22;4477;48.736;9.176;2023-06-19T00:05:08;20.80;62.90
8882;DHT22;4477;48.736;9.176;2023-06-19T00:07:36;20.80;63.80
8882;DHT22;4477;48.736;9.176;2023-06-19T00:10:04;20.70;64.10
8882;DHT22;4477;48.736;9.176;2023-06-19T00:12:31;20.60;64.50
8882;DHT22;4477;48.736;9.176;2023-06-19T00:14:58;20.50;65.30
8882;DHT22;4477;48.736;9.176;2023-06-19T00:17:25;20.50;64.70
8882;DHT22;4477;48.736;9.176;2023-06-19T00:19:54;20.60;64.60
8882;DHT22;4477;48.736;9.176;2023-06-19T00:22:20;20.70;63.50
8882;DHT22;4477;48.736;9.176;2023-06-19T00:24:47;21.00;62.60
8882;DHT22;4477;48.736;9.176;2023-06-19T00:27:14;21.00;63.30
8882;DHT22;4477;48.736;9.176;2023-06-19T00:29:41;20.90;63.60
8882;DHT22;4477;48.736;9.176;2023-06-19T00:32:08;20.90;63.00
8882;DHT22;4477;48.736;9.176;2023-06-19T00:34:35;20.90;62.60
8882;DHT22;4477;48.736;9.176;2023-06-19T00:37:05;20.90;62.70
8882;DHT22;4477;48.736;9.176;2023-06-19T00:39:31;20.90;63.00
8882;DHT22;4477;48.736;9.176;2023-06-19T00:41:58;20.80;64.40
8882;DHT22;4477;48.736;9.176;2023-06-19T00:44:25;20.70;64.20
8882;DHT22;4477;48.736;9.176;2023-06-19T00:46:56;20.70;64.10
8882;DHT22;4477;48.736;9.176;2023-06-19T00:49:24;20.60;64.70
8882;DHT22;4477;48.736;9.176;2023-06-19T00:51:51;20.40;65.60
8882;DHT22;4477;48.736;9.176;2023-06-19T00:54:20;20.30;66.20
8882;DHT22;4477;48.736;9.176;2023-06-19T00:56:47;20.10;69.00
8882;DHT22;4477;48.736;9.176;2023-06-19T00:59:16;20.00;68.30
8882;DHT22;4477;48.736;9.176;2023-06-19T01:01:44;20.10;67.60
8882;DHT22;4477;48.736;9.176;2023-06-19T01:04:11;20.10;68.50
8882;DHT22;4477;48.736;9.176;2023-06-19T01:06:43;20.10;67.50
8882;DHT22;4477;48.736;9.176;2023-06-19T01:09:15;20.20;68.80
8882;DHT22;4477;48.736;9.176;2023-06-19T01:11:48;20.30;67.80
8882;DHT22;4477;48.736;9.176;2023-06-19T01:14:19;20.30;67.20
8882;DHT22;4477;48.736;9.176;2023-06-19T01:16:48;20.40;67.80
8882;DHT22;4477;48.736;9.176;2023-06-19T01:19:18;20.40;67.60
8882;DHT22;4477;48.736;9.176;2023-06-19T01:21:46;20.40;68.50
8882;DHT22;4477;48.736;9.176;2023-06-19T01:24:14;20.40;67.80
8882;DHT22;4477;48.736;9.176;2023-06-19T01:26:41;20.40;68.10
8882;DHT22;4477;48.736;9.176;2023-06-19T01:29:11;20.30;68.10
8882;DHT22;4477;48.736;9.176;2023-06-19T01:31:44;20.30;67.10
8882;DHT22;4477;48.736;9.176;2023-06-19T01:34:12;20.30;66.60
8882;DHT22;4477;48.736;9.176;2023-06-19T01:36:41;20.30;65.70
8882;DHT22;4477;48.736;9.176;2023-06-19T01:39:09;20.40;65.60
8882;DHT22;4477;48.736;9.176;2023-06-19T01:41:38;20.30;66.10
8882;DHT22;4477;48.736;9.176;2023-06-19T01:44:06;20.30;66.70
8882;DHT22;4477;48.736;9.176;2023-06-19T01:46:34;20.40;66.80
8882;DHT22;4477;48.736;9.176;2023-06-19T01:49:00;20.40;67.10
8882;DHT22;4477;48.736;9.176;2023-06-19T01:51:27;20.40;67.30
8882;DHT22;4477;48.736;9.176;2023-06-19T01:53:54;20.30;67.50
8882;DHT22;4477;48.736;9.176;2023-06-19T01:56:22;20.30;67.70
8882;DHT22;4477;48.736;9.176;2023-06-19T01:58:51;20.30;67.70
8882;DHT22;4477;48.736;9.176;2023-06-19T02:01:17;20.20;67.80
8882;DHT22;4477;48.736;9.176;2023-06-19T02:03:44;20.20;68.70
8882;DHT22;4477;48.736;9.176;2023-06-19T02:06:11;20.20;69.10
8882;DHT22;4477;48.736;9.176;2023-06-19T02:08:38;20.20;69.50
8882;DHT22;4477;48.736;9.176;2023-06-19T02:11:05;20.10;70.40
8882;DHT22;4477;48.736;9.176;2023-06-19T02:13:31;20.00;70.60
8882;DHT22;4477;48.736;9.176;2023-06-19T02:16:00;19.90;71.30
8882;DHT22;4477;48.736;9.176;2023-06-19T02:18:26;19.90;72.00
8882;DHT22;4477;48.736;9.176;2023-06-19T02:20:53;20.00;72.60
8882;DHT22;4477;48.736;9.176;2023-06-19T02:23:20;20.00;72.60
8882;DHT22;4477;48.736;9.176;2023-06-19T02:25:47;20.10;72.60
8882;DHT22;4477;48.736;9.176;2023-06-19T02:28:13;20.10;72.60
8882;DHT22;4477;48.736;9.176;2023-06-19T02:30:41;20.10;72.60
8882;DHT22;4477;48.736;9.176;2023-06-19T02:33:09;20.20;72.70
8882;DHT22;4477;48.736;9.176;2023-06-19T02:35:36;20.20;72.90
8882;DHT22;4477;48.736;9.176;2023-06-19T02:38:03;20.10;72.90
8882;DHT22;4477;48.736;9.176;2023-06-19T02:40:30;20.10;74.10
8882;DHT22;4477;48.736;9.176;2023-06-19T02:42:57;20.00;73.40
8882;DHT22;4477;48.736;9.176;2023-06-19T02:45:24;20.00;73.40
8882;DHT22;4477;48.736;9.176;2023-06-19T02:47:51;20.00;73.70
8882;DHT22;4477;48.736;9.176;2023-06-19T02:50:20;20.00;73.40
8882;DHT22;4477;48.736;9.176;2023-06-19T02:52:47;20.00;73.90
8882;DHT22;4477;48.736;9.176;2023-06-19T02:55:14;20.00;74.10
8882;DHT22;4477;48.736;9.176;2023-06-19T02:57:40;20.00;74.60
8882;DHT22;4477;48.736;9.176;2023-06-19T03:00:08;20.00;74.40
8882;DHT22;4477;48.736;9.176;2023-06-19T03:02:37;20.00;74.70
8882;DHT22;4477;48.736;9.176;2023-06-19T03:05:08;19.90;74.60
8882;DHT22;4477;48.736;9.176;2023-06-19T03:07:37;20.00;74.80
8882;DHT22;4477;48.736;9.176;2023-06-19T03:10:04;19.90;74.90
8882;DHT22;4477;48.736;9.176;2023-06-19T03:12:31;19.90;75.00
8882;DHT22;4477;48.736;9.176;2023-06-19T03:14:58;19.90;75.20
8882;DHT22;4477;48.736;9.176;2023-06-19T03:17:25;19.90;75.40
8882;DHT22;4477;48.736;9.176;2023-06-19T03:19:52;19.90;75.40
8882;DHT22;4477;48.736;9.176;2023-06-19T03:22:20;19.90;75.50
8882;DHT22;4477;48.736;9.176;2023-06-19T03:24:48;19.90;75.90
8882;DHT22;4477;48.736;9.176;2023-06-19T03:27:15;19.80;76.10
8882;DHT22;4477;48.736;9.176;2023-06-19T03:29:42;19.80;76.10
8882;DHT22;4477;48.736;9.176;2023-06-19T03:32:09;19.80;76.20
8882;DHT22;4477;48.736;9.176;2023-06-19T03:34:36;19.80;76.40
8882;DHT22;4477;48.736;9.176;2023-06-19T03:37:03;19.80;76.20
8882;DHT22;4477;48.736;9.176;2023-06-19T03:39:29;19.80;76.30
8882;DHT22;4477;48.736;9.176;2023-06-19T03:41:58;19.80;76.50
8882;DHT22;4477;48.736;9.176;2023-06-19T03:44:24;19.80;76.80
8882;DHT22;4477;48.736;9.176;2023-06-19T03:46:51;19.60;78.00
8882;DHT22;4477;48.736;9.176;2023-06-19T03:49:18;19.60;78.00
8882;DHT22;4477;48.736;9.176;2023-06-19T03:51:45;19.50;78.50
8882;DHT22;4477;48.736;9.176;2023-06-19T03:54:12;19.50;79.50
8882;DHT22;4477;48.736;9.176;2023-06-19T03:56:38;19.40;79.20
8882;DHT22;4477;48.736;9.176;2023-06-19T03:59:07;19.40;79.00
8882;DHT22;4477;48.736;9.176;2023-06-19T04:01:33;19.40;78.60
8882;DHT22;4477;48.736;9.176;2023-06-19T04:04:00;19.40;79.40
8882;DHT22;4477;48.736;9.176;2023-06-19T04:06:27;19.30;80.40
8882;DHT22;4477;48.736;9.176;2023-06-19T04:08:54;19.20;80.40
8882;DHT22;4477;48.736;9.176;2023-06-19T04:11:21;19.20;81.30
8882;DHT22;4477;48.736;9.176;2023-06-19T04:13:48;19.10;82.80
8882;DHT22;4477;48.736;9.176;2023-06-19T04:16:16;19.00;83.50
8882;DHT22;4477;48.736;9.176;2023-06-19T04:18:43;19.00;83.90
8882;DHT22;4477;48.736;9.176;2023-06-19T04:21:09;19.00;84.00
8882;DHT22;4477;48.736;9.176;2023-06-19T04:23:36;19.10;84.10
8882;DHT22;4477;48.736;9.176;2023-06-19T04:26:03;19.00;85.60
8882;DHT22;4477;48.736;9.176;2023-06-19T04:28:30;18.80;86.60
8882;DHT22;4477;48.736;9.176;2023-06-19T04:30:56;18.90;87.80
8882;DHT22;4477;48.736;9.176;2023-06-19T04:33:28;19.00;86.70
8882;DHT22;4477;48.736;9.176;2023-06-19T04:35:55;19.10;85.40
8882;DHT22;4477;48.736;9.176;2023-06-19T04:38:22;19.20;85.50
8882;DHT22;4477;48.736;9.176;2023-06-19T04:40:49;19.30;86.20
8882;DHT22;4477;48.736;9.176;2023-06-19T04:43:17;19.40;85.20
8882;DHT22;4477;48.736;9.176;2023-06-19T04:45:44;19.50;85.60
8882;DHT22;4477;48.736;9.176;2023-06-19T04:48:11;19.60;84.90
8882;DHT22;4477;48.736;9.176;2023-06-19T04:50:39;19.80;83.70
8882;DHT22;4477;48.736;9.176;2023-06-19T04:53:05;19.90;84.30
8882;DHT22;4477;48.736;9.176;2023-06-19T04:55:32;20.10;83.10
8882;DHT22;4477;48.736;9.176;2023-06-19T04:57:59;20.20;82.50
8882;DHT22;4477;48.736;9.176;2023-06-19T05:00:26;20.30;82.90
8882;DHT22;4477;48.736;9.176;2023-06-19T05:02:53;20.40;81.90
8882;DHT22;4477;48.736;9.176;2023-06-19T05:05:25;20.50;81.80
8882;DHT22;4477;48.736;9.176;2023-06-19T05:07:53;20.70;80.60
8882;DHT22;4477;48.736;9.176;2023-06-19T05:10:20;21.00;80.40
8882;DHT22;4477;48.736;9.176;2023-06-19T05:12:47;21.40;78.70
8882;DHT22;4477;48.736;9.176;2023-06-19T05:15:14;21.50;78.00
8882;DHT22;4477;48.736;9.176;2023-06-19T05:17:41;21.10;79.00
8882;DHT22;4477;48.736;9.176;2023-06-19T05:20:08;20.80;79.80
8882;DHT22;4477;48.736;9.176;2023-06-19T05:22:37;20.60;82.70
8882;DHT22;4477;48.736;9.176;2023-06-19T05:25:06;20.50;83.90
8882;DHT22;4477;48.736;9.176;2023-06-19T05:27:33;20.30;83.20
8882;DHT22;4477;48.736;9.176;2023-06-19T05:30:00;20.30;83.50
8882;DHT22;4477;48.736;9.176;2023-06-19T05:32:27;20.30;84.00
8882;DHT22;4477;48.736;9.176;2023-06-19T05:34:54;20.30;85.40
8882;DHT22;4477;48.736;9.176;2023-06-19T05:37:20;20.40;83.90
8882;DHT22;4477;48.736;9.176;2023-06-19T05:39:48;20.40;82.80
8882;DHT22;4477;48.736;9.176;2023-06-19T05:42:16;20.50;83.00
8882;DHT22;4477;48.736;9.176;2023-06-19T05:44:43;20.60;83.70
8882;DHT22;4477;48.736;9.176;2023-06-19T05:47:10;20.90;82.30
8882;DHT22;4477;48.736;9.176;2023-06-19T05:49:37;21.20;80.60
8882;DHT22;4477;48.736;9.176;2023-06-19T05:52:07;21.60;80.40
8882;DHT22;4477;48.736;9.176;2023-06-19T05:54:34;22.20;77.30
8882;DHT22;4477;48.736;9.176;2023-06-19T05:57:01;22.80;76.30
8882;DHT22;4477;48.736;9.176;2023-06-19T05:59:29;23.10;74.00
8882;DHT22;4477;48.736;9.176;2023-06-19T06:01:56;23.20;73.80
8882;DHT22;4477;48.736;9.176;2023-06-19T06:04:23;23.10;73.80
8882;DHT22;4477;48.736;9.176;2023-06-19T06:06:50;22.90;74.60
8882;DHT22;4477;48.736;9.176;2023-06-19T06:09:17;22.70;74.50
8882;DHT22;4477;48.736;9.176;2023-06-19T06:11:43;22.40;75.50
8882;DHT22;4477;48.736;9.176;2023-06-19T06:14:10;22.10;78.00
8882;DHT22;4477;48.736;9.176;2023-06-19T06:16:38;22.00;78.50
8882;DHT22;4477;48.736;9.176;2023-06-19T06:19:06;22.00;77.90
8882;DHT22;4477;48.736;9.176;2023-06-19T06:21:33;22.30;77.60
8882;DHT22;4477;48.736;9.176;2023-06-19T06:24:01;22.50;76.40
8882;DHT22;4477;48.736;9.176;2023-06-19T06:26:28;22.90;75.90
8882;DHT22;4477;48.736;9.176;2023-06-19T06:28:55;23.70;73.40
8882;DHT22;4477;48.736;9.176;2023-06-19T06:31:22;24.20;71.50
8882;DHT22;4477;48.736;9.176;2023-06-19T06:33:50;24.20;70.40
8882;DHT22;4477;48.736;9.176;2023-06-19T06:36:18;24.40;70.10
8882;DHT22;4477;48.736;9.176;2023-06-19T06:38:45;24.60;69.70
8882;DHT22;4477;48.736;9.176;2023-06-19T07:30:22;25.50;66.80
8882;DHT22;4477;48.736;9.176;2023-06-19T07:32:49;27.10;59.90
8882;DHT22;4477;48.736;9.176;2023-06-19T07:35:16;27.70;56.80
8882;DHT22;4477;48.736;9.176;2023-06-19T07:37:42;27.80;57.60
8882;DHT22;4477;48.736;9.176;2023-06-19T07:40:10;27.60;57.30
8882;DHT22;4477;48.736;9.176;2023-06-19T07:42:39;27.20;58.90
8882;DHT22;4477;48.736;9.176;2023-06-19T07:45:07;27.10;58.70
8882;DHT22;4477;48.736;9.176;2023-06-19T07:47:34;27.10;59.10
8882;DHT22;4477;48.736;9.176;2023-06-19T07:50:00;26.90;57.70
8882;DHT22;4477;48.736;9.176;2023-06-19T07:52:27;26.70;60.50
8882;DHT22;4477;48.736;9.176;2023-06-19T07:54:55;27.00;58.70
8882;DHT22;4477;48.736;9.176;2023-06-19T07:57:24;27.30;58.40
8882;DHT22;4477;48.736;9.176;2023-06-19T07:59:55;27.30;57.50
8882;DHT22;4477;48.736;9.176;2023-06-19T08:02:22;26.80;58.50
8882;DHT22;4477;48.736;9.176;2023-06-19T08:04:48;26.40;59.10
8882;DHT22;4477;48.736;9.176;2023-06-19T08:07:15;26.00;59.60
8882;DHT22;4477;48.736;9.176;2023-06-19T08:09:42;25.90;60.90
8882;DHT22;4477;48.736;9.176;2023-06-19T08:12:09;25.80;60.40
8882;DHT22;4477;48.736;9.176;2023-06-19T08:14:36;25.40;62.20
8882;DHT22;4477;48.736;9.176;2023-06-19T08:17:05;25.00;61.70
8882;DHT22;4477;48.736;9.176;2023-06-19T08:19:32;24.80;64.10
8882;DHT22;4477;48.736;9.176;2023-06-19T08:21:59;25.10;62.10
8882;DHT22;4477;48.736;9.176;2023-06-19T08:24:27;25.10;63.30
8882;DHT22;4477;48.736;9.176;2023-06-19T08:26:54;25.30;63.00
8882;DHT22;4477;48.736;9.176;2023-06-19T08:29:21;25.30;61.60
8882;DHT22;4477;48.736;9.176;2023-06-19T08:31:48;25.10;62.30
8882;DHT22;4477;48.736;9.176;2023-06-19T08:34:16;24.90;63.60
8882;DHT22;4477;48.736;9.176;2023-06-19T08:36:43;25.00;62.70
8882;DHT22;4477;48.736;9.176;2023-06-19T08:39:10;25.00;64.20
8882;DHT22;4477;48.736;9.176;2023-06-19T08:41:37;24.80;63.10
8882;DHT22;4477;48.736;9.176;2023-06-19T08:44:04;24.70;64.00
8882;DHT22;4477;48.736;9.176;2023-06-19T08:46:31;25.40;65.90
8882;DHT22;4477;48.736;9.176;2023-06-19T08:48:58;26.10;61.00
8882;DHT22;4477;48.736;9.176;2023-06-19T08:51:28;26.30;60.10
8882;DHT22;4477;48.736;9.176;2023-06-19T08:53:59;26.70;59.30
8882;DHT22;4477;48.736;9.176;2023-06-19T08:56:26;27.50;57.30
8882;DHT22;4477;48.736;9.176;2023-06-19T08:58:53;27.90;57.00
8882;DHT22;4477;48.736;9.176;2023-06-19T09:01:20;28.40;54.70
8882;DHT22;4477;48.736;9.176;2023-06-19T09:03:49;28.50;54.00
8882;DHT22;4477;48.736;9.176;2023-06-19T09:06:17;29.20;55.30
8882;DHT22;4477;48.736;9.176;2023-06-19T09:08:46;29.90;53.20
8882;DHT22;4477;48.736;9.176;2023-06-19T09:11:23;29.20;51.20
8882;DHT22;4477;48.736;9.176;2023-06-19T09:13:56;28.80;53.00
8882;DHT22;4477;48.736;9.176;2023-06-19T09:16:23;28.90;53.60
8882;DHT22;4477;48.736;9.176;2023-06-19T09:18:50;29.40;50.00
8882;DHT22;4477;48.736;9.176;2023-06-19T09:21:17;29.70;50.20
8882;DHT22;4477;48.736;9.176;2023-06-19T09:23:46;30.00;51.10
8882;DHT22;4477;48.736;9.176;2023-06-19T09:26:14;30.90;49.80
8882;DHT22;4477;48.736;9.176;2023-06-19T09:28:42;30.80;49.30
8882;DHT22;4477;48.736;9.176;2023-06-19T09:31:09;30.20;49.70
8882;DHT22;4477;48.736;9.176;2023-06-19T09:33:37;29.60;48.80
8882;DHT22;4477;48.736;9.176;2023-06-19T09:36:06;28.90;51.30
8882;DHT22;4477;48.736;9.176;2023-06-19T09:38:35;28.30;51.00
8882;DHT22;4477;48.736;9.176;2023-06-19T09:41:06;27.90;52.80
8882;DHT22;4477;48.736;9.176;2023-06-19T09:43:36;27.40;53.70
8882;DHT22;4477;48.736;9.176;2023-06-19T09:46:04;27.50;53.90
8882;DHT22;4477;48.736;9.176;2023-06-19T09:48:33;27.50;54.70
8882;DHT22;4477;48.736;9.176;2023-06-19T09:51:05;27.70;54.20
8882;DHT22;4477;48.736;9.176;2023-06-19T09:53:36;27.70;53.90
8882;DHT22;4477;48.736;9.176;2023-06-19T09:56:04;27.90;55.80
8882;DHT22;4477;48.736;9.176;2023-06-19T09:58:32;28.60;53.50
8882;DHT22;4477;48.736;9.176;2023-06-19T10:01:00;29.70;53.80
8882;DHT22;4477;48.736;9.176;2023-06-19T10:03:31;31.20;49.90
8882;DHT22;4477;48.736;9.176;2023-06-19T10:05:59;32.50;47.40
8882;DHT22;4477;48.736;9.176;2023-06-19T10:08:30;32.70;46.20
8882;DHT22;4477;48.736;9.176;2023-06-19T10:10:58;33.20;44.00
8882;DHT22;4477;48.736;9.176;2023-06-19T10:13:33;33.70;43.80
8882;DHT22;4477;48.736;9.176;2023-06-19T10:16:00;34.00;42.80
8882;DHT22;4477;48.736;9.176;2023-06-19T10:18:27;34.10;43.70
8882;DHT22;4477;48.736;9.176;2023-06-19T10:20:55;33.80;44.70
8882;DHT22;4477;48.736;9.176;2023-06-19T10:23:24;33.80;46.50
8882;DHT22;4477;48.736;9.176;2023-06-19T10:25:56;33.60;43.20
8882;DHT22;4477;48.736;9.176;2023-06-19T10:28:25;32.60;45.10
8882;DHT22;4477;48.736;9.176;2023-06-19T10:30:54;31.80;47.20
8882;DHT22;4477;48.736;9.176;2023-06-19T10:33:22;32.20;50.10
8882;DHT22;4477;48.736;9.176;2023-06-19T10:35:50;33.50;49.60
8882;DHT22;4477;48.736;9.176;2023-06-19T10:38:17;33.70;44.70
8882;DHT22;4477;48.736;9.176;2023-06-19T10:40:45;33.30;44.20
8882;DHT22;4477;48.736;9.176;2023-06-19T10:43:12;32.50;47.10
8882;DHT22;4477;48.736;9.176;2023-06-19T10:45:39;32.00;45.30
8882;DHT22;4477;48.736;9.176;2023-06-19T10:48:08;31.60;48.20
8882;DHT22;4477;48.736;9.176;2023-06-19T10:50:36;32.20;51.00
8882;DHT22;4477;48.736;9.176;2023-06-19T10:53:04;33.30;45.70
8882;DHT22;4477;48.736;9.176;2023-06-19T10:55:31;33.50;45.80
8882;DHT22;4477;48.736;9.176;2023-06-19T10:57:57;33.40;44.80
8882;DHT22;4477;48.736;9.176;2023-06-19T11:00:26;33.00;46.60
8882;DHT22;4477;48.736;9.176;2023-06-19T11:02:53;32.10;48.10
8882;DHT22;4477;48.736;9.176;2023-06-19T11:05:23;31.70;48.30
8882;DHT22;4477;48.736;9.176;2023-06-19T11:07:53;31.30;48.80
8882;DHT22;4477;48.736;9.176;2023-06-19T11:10:22;31.00;50.00
8882;DHT22;4477;48.736;9.176;2023-06-19T11:12:49;30.70;51.50
8882;DHT22;4477;48.736;9.176;2023-06-19T11:15:16;30.30;51.50
8882;DHT22;4477;48.736;9.176;2023-06-19T11:17:43;29.90;53.20
8882;DHT22;4477;48.736;9.176;2023-06-19T11:20:11;30.40;54.30
8882;DHT22;4477;48.736;9.176;2023-06-19T11:22:41;31.60;52.60
8882;DHT22;4477;48.736;9.176;2023-06-19T11:25:09;32.70;51.30
8882;DHT22;4477;48.736;9.176;2023-06-19T11:27:39;33.50;49.40
8882;DHT22;4477;48.736;9.176;2023-06-19T11:30:07;33.90;46.40
8882;DHT22;4477;48.736;9.176;2023-06-19T11:32:36;33.80;45.10
8882;DHT22;4477;48.736;9.176;2023-06-19T11:35:08;33.10;47.20
8882;DHT22;4477;48.736;9.176;2023-06-19T11:37:35;33.30;50.50
8882;DHT22;4477;48.736;9.176;2023-06-19T11:40:03;34.20;49.80
8882;DHT22;4477;48.736;9.176;2023-06-19T11:42:47;34.80;45.00
8882;DHT22;4477;48.736;9.176;2023-06-19T11:45:14;34.50;43.10
8882;DHT22;4477;48.736;9.176;2023-06-19T11:47:43;34.50;47.60
8882;DHT22;4477;48.736;9.176;2023-06-19T11:50:11;35.10;44.70
8882;DHT22;4477;48.736;9.176;2023-06-19T11:52:38;35.50;43.80
8882;DHT22;4477;48.736;9.176;2023-06-19T11:55:07;35.80;42.20
8882;DHT22;4477;48.736;9.176;2023-06-19T11:57:34;35.80;40.90
8882;DHT22;4477;48.736;9.176;2023-06-19T12:00:01;36.00;42.50
8882;DHT22;4477;48.736;9.176;2023-06-19T12:02:32;35.60;42.20
8882;DHT22;4477;48.736;9.176;2023-06-19T12:04:59;35.40;43.40
8882;DHT22;4477;48.736;9.176;2023-06-19T12:07:26;35.00;43.70
8882;DHT22;4477;48.736;9.176;2023-06-19T12:09:53;34.80;44.60
8882;DHT22;4477;48.736;9.176;2023-06-19T12:12:21;34.80;44.40
8882;DHT22;4477;48.736;9.176;2023-06-19T12:14:48;34.80;45.60
8882;DHT22;4477;48.736;9.176;2023-06-19T12:17:15;35.10;45.60
8882;DHT22;4477;48.736;9.176;2023-06-19T12:19:41;35.80;45.20
8882;DHT22;4477;48.736;9.176;2023-06-19T12:22:08;36.30;41.70
8882;DHT22;4477;48.736;9.176;2023-06-19T12:24:35;36.80;41.70
8882;DHT22;4477;48.736;9.176;2023-06-19T12:27:02;36.80;41.40
8882;DHT22;4477;48.736;9.176;2023-06-19T12:29:30;36.10;41.40
8882;DHT22;4477;48.736;9.176;2023-06-19T12:32:00;36.00;39.80
8882;DHT22;4477;48.736;9.176;2023-06-19T12:34:27;36.20;39.90
8882;DHT22;4477;48.736;9.176;2023-06-19T12:36:54;37.10;41.00
8882;DHT22;4477;48.736;9.176;2023-06-19T12:39:22;38.00;41.10
8882;DHT22;4477;48.736;9.176;2023-06-19T12:41:50;37.80;35.50
8882;DHT22;4477;48.736;9.176;2023-06-19T12:44:17;37.20;40.50
8882;DHT22;4477;48.736;9.176;2023-06-19T12:46:45;37.00;37.30
8882;DHT22;4477;48.736;9.176;2023-06-19T12:49:12;36.20;40.30
8882;DHT22;4477;48.736;9.176;2023-06-19T12:51:39;36.90;42.20
8882;DHT22;4477;48.736;9.176;2023-06-19T12:54:06;38.00;38.70
8882;DHT22;4477;48.736;9.176;2023-06-19T12:56:33;38.70;38.10
8882;DHT22;4477;48.736;9.176;2023-06-19T12:58:59;38.60;35.40
8882;DHT22;4477;48.736;9.176;2023-06-19T13:01:26;36.80;38.90
8882;DHT22;4477;48.736;9.176;2023-06-19T13:03:54;36.70;39.90
8882;DHT22;4477;48.736;9.176;2023-06-19T13:06:21;37.50;36.00
8882;DHT22;4477;48.736;9.176;2023-06-19T13:08:48;38.10;36.50
8882;DHT22;4477;48.736;9.176;2023-06-19T13:11:15;38.30;35.10
8882;DHT22;4477;48.736;9.176;2023-06-19T13:13:42;38.70;35.80
8882;DHT22;4477;48.736;9.176;2023-06-19T13:16:09;38.80;39.10
8882;DHT22;4477;48.736;9.176;2023-06-19T13:18:36;39.40;36.60
8882;DHT22;4477;48.736;9.176;2023-06-19T13:21:04;39.80;33.20
8882;DHT22;4477;48.736;9.176;2023-06-19T13:23:31;40.10;33.60
8882;DHT22;4477;48.736;9.176;2023-06-19T13:25:58;40.70;36.50
8882;DHT22;4477;48.736;9.176;2023-06-19T13:28:24;40.80;31.80
8882;DHT22;4477;48.736;9.176;2023-06-19T13:30:51;41.00;33.20
8882;DHT22;4477;48.736;9.176;2023-06-19T13:33:18;41.10;30.50
8882;DHT22;4477;48.736;9.176;2023-06-19T13:35:45;40.70;30.00
8882;DHT22;4477;48.736;9.176;2023-06-19T13:38:13;40.70;32.20
8882;DHT22;4477;48.736;9.176;2023-06-19T13:40:41;38.60;31.80
8882;DHT22;4477;48.736;9.176;2023-06-19T13:43:08;37.70;34.70
8882;DHT22;4477;48.736;9.176;2023-06-19T13:45:35;36.90;34.70
8882;DHT22;4477;48.736;9.176;2023-06-19T13:48:35;36.10;37.40
8882;DHT22;4477;48.736;9.176;2023-06-19T13:51:10;36.20;36.30
8882;DHT22;4477;48.736;9.176;2023-06-19T13:53:51;34.90;37.70
8882;DHT22;4477;48.736;9.176;2023-06-19T13:56:29;33.80;40.20
8882;DHT22;4477;48.736;9.176;2023-06-19T13:59:00;35.30;40.60
8882;DHT22;4477;48.736;9.176;2023-06-19T14:01:33;36.40;37.80
8882;DHT22;4477;48.736;9.176;2023-06-19T14:04:37;37.20;38.20
8882;DHT22;4477;48.736;9.176;2023-06-19T14:07:22;37.30;34.40
8882;DHT22;4477;48.736;9.176;2023-06-19T14:10:30;37.10;36.00
8882;DHT22;4477;48.736;9.176;2023-06-19T14:13:11;37.30;37.50
8882;DHT22;4477;48.736;9.176;2023-06-19T14:15:38;37.90;34.50
8882;DHT22;4477;48.736;9.176;2023-06-19T14:18:05;37.80;35.00
8882;DHT22;4477;48.736;9.176;2023-06-19T14:20:31;38.00;34.10
8882;DHT22;4477;48.736;9.176;2023-06-19T14:22:58;39.10;32.50
8882;DHT22;4477;48.736;9.176;2023-06-19T14:25:27;40.20;30.00
8882;DHT22;4477;48.736;9.176;2023-06-19T14:27:54;40.70;29.70
8882;DHT22;4477;48.736;9.176;2023-06-19T14:30:21;40.40;30.70
8882;DHT22;4477;48.736;9.176;2023-06-19T14:32:48;40.00;31.40
8882;DHT22;4477;48.736;9.176;2023-06-19T14:35:15;40.20;34.50
8882;DHT22;4477;48.736;9.176;2023-06-19T14:37:42;40.90;32.30
8882;DHT22;4477;48.736;9.176;2023-06-19T14:40:09;40.90;31.40
8882;DHT22;4477;48.736;9.176;2023-06-19T14:42:38;40.40;30.90
8882;DHT22;4477;48.736;9.176;2023-06-19T14:45:06;39.20;32.60
8882;DHT22;4477;48.736;9.176;2023-06-19T14:47:33;38.10;35.40
8882;DHT22;4477;48.736;9.176;2023-06-19T14:50:00;37.00;36.20
8882;DHT22;4477;48.736;9.176;2023-06-19T14:52:27;36.60;37.00
8882;DHT22;4477;48.736;9.176;2023-06-19T14:54:54;36.80;35.40
8882;DHT22;4477;48.736;9.176;2023-06-19T14:57:20;36.70;37.60
8882;DHT22;4477;48.736;9.176;2023-06-19T14:59:49;36.50;37.50
8882;DHT22;4477;48.736;9.176;2023-06-19T15:02:15;36.30;38.80
8882;DHT22;4477;48.736;9.176;2023-06-19T15:04:42;36.00;38.70
8882;DHT22;4477;48.736;9.176;2023-06-19T15:07:09;36.30;37.30
8882;DHT22;4477;48.736;9.176;2023-06-19T15:09:36;37.80;38.90
8882;DHT22;4477;48.736;9.176;2023-06-19T15:12:03;39.60;34.00
8882;DHT22;4477;48.736;9.176;2023-06-19T15:14:30;40.90;32.30
8882;DHT22;4477;48.736;9.176;2023-06-19T15:17:00;41.60;30.20
8882;DHT22;4477;48.736;9.176;2023-06-19T15:19:26;42.30;30.00
8882;DHT22;4477;48.736;9.176;2023-06-19T15:21:53;42.60;29.20
8882;DHT22;4477;48.736;9.176;2023-06-19T15:24:20;42.60;26.70
8882;DHT22;4477;48.736;9.176;2023-06-19T15:26:47;42.00;29.80
8882;DHT22;4477;48.736;9.176;2023-06-19T15:29:14;41.90;32.80
8882;DHT22;4477;48.736;9.176;2023-06-19T15:31:40;42.30;28.60
8882;DHT22;4477;48.736;9.176;2023-06-19T15:34:09;41.40;29.50
8882;DHT22;4477;48.736;9.176;2023-06-19T15:36:36;39.60;31.20
8882;DHT22;4477;48.736;9.176;2023-06-19T15:39:03;38.10;34.50
8882;DHT22;4477;48.736;9.176;2023-06-19T15:41:29;37.30;35.40
8882;DHT22;4477;48.736;9.176;2023-06-19T15:43:56;36.60;37.80
8882;DHT22;4477;48.736;9.176;2023-06-19T15:46:23;36.00;37.20
8882;DHT22;4477;48.736;9.176;2023-06-19T15:48:51;36.70;37.90
8882;DHT22;4477;48.736;9.176;2023-06-19T15:51:20;36.70;37.20
8882;DHT22;4477;48.736;9.176;2023-06-19T15:53:46;36.00;38.90
8882;DHT22;4477;48.736;9.176;2023-06-19T15:56:13;35.50;37.50
8882;DHT22;4477;48.736;9.176;2023-06-19T15:58:40;34.90;37.60
8882;DHT22;4477;48.736;9.176;2023-06-19T16:01:07;34.30;38.50
8882;DHT22;4477;48.736;9.176;2023-06-19T16:03:33;33.80;38.30
8882;DHT22;4477;48.736;9.176;2023-06-19T16:06:00;33.60;40.10
8882;DHT22;4477;48.736;9.176;2023-06-19T16:08:30;33.40;42.20
8882;DHT22;4477;48.736;9.176;2023-06-19T16:10:56;33.00;41.30
8882;DHT22;4477;48.736;9.176;2023-06-19T16:13:23;32.50;42.40
8882;DHT22;4477;48.736;9.176;2023-06-19T16:15:50;31.60;41.20
8882;DHT22;4477;48.736;9.176;2023-06-19T16:18:17;31.10;42.40
8882;DHT22;4477;48.736;9.176;2023-06-19T16:20:43;30.70;45.90
8882;DHT22;4477;48.736;9.176;2023-06-19T16:23:10;30.30;45.10
8882;DHT22;4477;48.736;9.176;2023-06-19T16:25:38;30.10;45.80
8882;DHT22;4477;48.736;9.176;2023-06-19T16:28:06;29.90;48.40
8882;DHT22;4477;48.736;9.176;2023-06-19T16:30:33;30.00;48.40
8882;DHT22;4477;48.736;9.176;2023-06-19T16:33:00;30.50;48.70
8882;DHT22;4477;48.736;9.176;2023-06-19T16:35:27;30.90;48.40
8882;DHT22;4477;48.736;9.176;2023-06-19T16:37:59;31.40;47.30
8882;DHT22;4477;48.736;9.176;2023-06-19T16:40:27;31.80;46.30
8882;DHT22;4477;48.736;9.176;2023-06-19T16:42:55;32.40;46.80
8882;DHT22;4477;48.736;9.176;2023-06-19T16:45:24;32.60;46.50
8882;DHT22;4477;48.736;9.176;2023-06-19T16:47:52;32.40;46.50
8882;DHT22;4477;48.736;9.176;2023-06-19T16:50:19;32.00;47.60
8882;DHT22;4477;48.736;9.176;2023-06-19T16:52:46;31.30;48.60
8882;DHT22;4477;48.736;9.176;2023-06-19T16:55:14;30.80;49.90